Cuzzart, West Virginia
Current Conditions -  °F | °C
As of 5:53 AM on Saturday 25 Oct 2014 (Local Time) from KMGW Reporting Station
Broken Clouds Broken Clouds  
Wind Chill: 50°   Ceiling: 4500
Heat Index: 50°   Visibility: 10mi
Dew Point: 39°   Wind: 3mph
Humidity: 66%   Direction: 220°SW
Pressure: 30"   Gusts: NA
Location:  39.6431°N, 79.6244°W
Report Text: KMGW 250953Z AUTO 22003KT 10SM BKN045 10/04 A3000 RMK AO2 SLP158 T01000039 TSNO
Loading
Personal Weather Stations






























Interactive Weather Map
Tropical Storm Tracking
New forecast layout! Learn more

10-Day Weather Forecast

Advertisements
Track Severe Weather on mobile